createdAt,value
2022-11-28T00:01:28.548Z,100694.00
2022-11-28T00:03:56.521Z,100692.13
2022-11-28T00:06:25.112Z,100692.13
2022-11-28T00:08:54.604Z,100691.28
2022-11-28T00:11:22.537Z,100683.94
2022-11-28T00:13:50.362Z,100683.59
2022-11-28T00:16:21.424Z,100641.38
2022-11-28T00:18:49.575Z,100673.19
2022-11-28T00:21:17.454Z,100685.00
2022-11-28T00:23:45.729Z,100681.66
2022-11-28T00:26:16.508Z,100674.97
2022-11-28T00:28:44.437Z,100674.13
2022-11-28T00:31:13.990Z,100678.50
2022-11-28T00:33:42.115Z,100665.13
2022-11-28T00:36:10.597Z,100673.28
2022-11-28T00:38:38.515Z,100667.63
2022-11-28T00:41:07.220Z,100665.97
2022-11-28T00:43:36.475Z,100656.97
2022-11-28T00:46:04.769Z,100654.25
2022-11-28T00:48:33.434Z,100642.78
2022-11-28T00:51:06.667Z,100640.84
2022-11-28T00:53:34.604Z,100638.13
2022-11-28T00:56:04.716Z,100629.97
2022-11-28T00:58:33.041Z,100618.28
2022-11-28T01:01:02.389Z,100626.47
2022-11-28T01:03:30.243Z,100625.38
2022-11-28T01:05:58.385Z,100627.03
2022-11-28T01:08:26.249Z,100618.03
2022-11-28T01:10:54.080Z,100618.03
2022-11-28T01:13:21.940Z,100617.22
2022-11-28T01:15:50.242Z,100625.38
2022-11-28T01:18:19.619Z,100620.75
2022-11-28T01:20:47.511Z,100621.59
2022-11-28T01:23:15.391Z,100618.88
2022-11-28T01:25:43.263Z,100595.16
2022-11-28T01:28:11.114Z,100600.59
2022-11-28T01:30:39.095Z,100560.25
2022-11-28T01:33:07.100Z,100610.94
2022-11-28T01:35:36.626Z,100601.13
2022-11-28T01:38:04.850Z,100604.28
2022-11-28T01:40:32.692Z,100600.06
2022-11-28T01:43:00.548Z,100596.53
2022-11-28T01:45:30.103Z,100602.78
2022-11-28T01:47:59.278Z,100602.78
2022-11-28T01:50:27.176Z,100593.81
2022-11-28T01:52:57.403Z,100560.78
2022-11-28T01:55:26.666Z,100592.97
2022-11-28T01:57:54.570Z,100574.69
2022-11-28T02:00:22.914Z,100579.38
2022-11-28T02:02:51.578Z,100584.81
2022-11-28T02:05:20.639Z,100581.00
2022-11-28T02:07:48.640Z,100573.31
2022-11-28T02:10:19.212Z,100569.31
2022-11-28T02:13:04.533Z,100566.81
2022-11-28T02:15:47.614Z,100559.56
2022-11-28T02:18:24.073Z,100562.22
2022-11-28T02:21:25.020Z,100570.38
2022-11-28T02:24:23.969Z,100533.59
2022-11-28T02:27:18.734Z,100556.38
2022-11-28T02:30:14.552Z,100575.19
2022-11-28T02:33:10.040Z,100566.22
2022-11-28T02:35:42.409Z,100572.47
2022-11-28T02:38:14.196Z,100570.59
2022-11-28T02:40:46.110Z,100524.06
2022-11-28T02:43:17.040Z,100579.59
2022-11-28T02:46:00.391Z,100566.22
2022-11-28T02:48:32.591Z,100569.75
2022-11-28T02:51:02.517Z,100561.59
2022-11-28T02:53:30.957Z,100562.06
2022-11-28T02:55:59.300Z,100536.31
2022-11-28T02:58:27.297Z,100572.25
2022-11-28T03:00:55.364Z,100533.59
2022-11-28T03:03:49.099Z,100564.09
2022-11-28T03:06:20.920Z,100562.22
2022-11-28T03:08:58.100Z,100545.81
2022-11-28T03:11:37.581Z,100566.00
2022-11-28T03:14:08.754Z,100566.00
2022-11-28T03:16:39.181Z,100557.00
2022-11-28T03:19:11.230Z,100556.16
2022-11-28T03:21:40.790Z,100569.53
2022-11-28T03:24:13.983Z,100551.56
2022-11-28T03:26:46.488Z,100548.00
2022-11-28T03:29:16.539Z,100543.41
2022-11-28T03:31:46.311Z,100508.38
2022-11-28T03:34:16.836Z,100547.16
2022-11-28T03:36:46.141Z,100540.91
2022-11-28T03:39:17.204Z,100537.13
2022-11-28T03:41:46.849Z,100537.34
2022-11-28T03:44:18.064Z,100522.69
2022-11-28T03:46:48.390Z,100526.84
2022-11-28T03:49:20.920Z,100523.53
2022-11-28T03:51:50.503Z,100399.63
2022-11-28T03:54:20.883Z,100481.41
2022-11-28T03:56:51.430Z,100535.00
2022-11-28T03:59:21.318Z,100531.69
2022-11-28T04:01:52.544Z,100479.59
2022-11-28T04:04:26.549Z,100526.25
2022-11-28T04:06:55.218Z,100523.53
2022-11-28T04:09:29.065Z,100453.84
2022-11-28T04:11:57.902Z,100533.34
2022-11-28T04:14:29.480Z,100517.03
2022-11-28T04:16:59.571Z,100528.75
2022-11-28T04:19:30.663Z,100523.53
2022-11-28T04:22:00.140Z,100515.56
2022-11-28T04:24:29.757Z,100519.38
2022-11-28T04:27:00.758Z,100519.38
2022-11-28T04:29:28.714Z,100514.75
2022-11-28T04:31:58.283Z,100516.66
2022-11-28T04:34:26.306Z,100522.91
2022-11-28T04:36:55.870Z,100521.03
2022-11-28T04:39:24.571Z,100538.19
2022-11-28T04:41:54.221Z,100543.03
2022-11-28T04:44:24.143Z,100531.88
2022-11-28T04:46:54.151Z,100523.94
2022-11-28T04:49:22.008Z,100536.31
2022-11-28T04:51:51.534Z,100555.81
2022-11-28T04:54:24.130Z,100545.75
2022-11-28T04:56:55.371Z,100532.69
2022-11-28T04:59:23.279Z,100550.34
2022-11-28T05:01:51.214Z,100549.53
2022-11-28T05:04:19.106Z,100539.47
2022-11-28T05:06:47.255Z,100549.53
2022-11-28T05:09:15.166Z,100557.69
2022-11-28T05:11:44.833Z,100565.84
2022-11-28T05:14:12.708Z,100564.78
2022-11-28T05:16:40.937Z,100568.56
2022-11-28T05:19:09.004Z,100565.00
2022-11-28T05:21:36.896Z,100567.50
2022-11-28T05:24:05.810Z,100566.44
2022-11-28T05:26:35.365Z,100555.81
2022-11-28T05:29:04.618Z,100561.25
2022-11-28T05:31:32.606Z,100556.63
2022-11-28T05:34:00.693Z,100528.31
2022-11-28T05:36:32.617Z,100546.59
2022-11-28T05:39:00.587Z,100550.94
2022-11-28T05:41:29.498Z,100445.00
2022-11-28T05:43:57.492Z,100551.19
2022-11-28T05:46:27.110Z,100542.78
2022-11-28T05:48:55.001Z,100508.28
2022-11-28T05:51:23.102Z,100536.50
2022-11-28T05:53:51.317Z,100538.56
2022-11-28T05:56:20.653Z,100516.28
2022-11-28T05:58:48.615Z,100532.03
2022-11-28T06:01:17.533Z,100521.72
2022-11-28T06:03:46.845Z,100539.16
2022-11-28T06:06:16.119Z,100494.31
2022-11-28T06:08:44.074Z,100517.09
2022-11-28T06:11:12.190Z,100522.00
2022-11-28T06:13:40.087Z,100512.78
2022-11-28T06:16:09.572Z,100510.06
2022-11-28T06:18:37.604Z,100520.09
2022-11-28T06:21:07.323Z,100512.78
2022-11-28T06:23:35.274Z,100514.66
2022-11-28T06:26:05.684Z,100506.50
2022-11-28T06:28:33.587Z,100502.13
2022-11-28T06:31:01.540Z,100483.63
2022-11-28T06:33:29.616Z,100503.22
2022-11-28T06:36:00.596Z,100499.19
2022-11-28T06:38:32.920Z,100500.00
2022-11-28T06:41:01.201Z,100498.06
2022-11-28T06:43:29.122Z,100507.56
2022-11-28T06:45:57.285Z,100504.25
2022-11-28T06:48:25.289Z,100487.59
2022-11-28T06:50:53.284Z,100479.78
2022-11-28T06:53:21.304Z,100511.59
2022-11-28T06:55:50.872Z,100512.03
2022-11-28T06:58:18.804Z,100522.69
2022-11-28T07:00:46.729Z,100519.97
2022-11-28T07:03:14.653Z,100528.34
2022-11-28T07:05:42.858Z,100530.25
2022-11-28T07:08:11.157Z,100526.72
2022-11-28T07:10:39.568Z,100529.44
2022-11-28T07:13:09.919Z,100527.75
2022-11-28T07:15:38.056Z,100534.03
2022-11-28T07:18:06.233Z,100527.16
2022-11-28T07:20:34.078Z,100537.59
2022-11-28T07:23:01.909Z,100540.31
2022-11-28T07:25:31.084Z,100548.47
2022-11-28T07:27:58.931Z,100555.56
2022-11-28T07:30:28.304Z,100541.72
2022-11-28T07:32:56.195Z,100541.72
2022-11-28T07:35:24.064Z,100553.44
2022-11-28T07:37:51.957Z,100539.84
2022-11-28T07:40:20.701Z,100535.94
2022-11-28T07:42:49.083Z,100550.50
2022-11-28T07:45:17.422Z,100540.47
2022-11-28T07:47:46.746Z,100543.19
2022-11-28T07:50:14.615Z,100543.19
2022-11-28T07:52:42.510Z,100533.13
2022-11-28T07:55:11.527Z,100537.72
2022-11-28T07:57:39.434Z,100537.47
2022-11-28T08:00:10.723Z,100542.13
2022-11-28T08:02:39.852Z,100539.41
2022-11-28T08:05:10.514Z,100505.94
2022-11-28T08:07:39.079Z,100542.94
2022-11-28T08:10:08.445Z,100540.47
2022-11-28T08:12:36.276Z,100551.09
2022-11-28T08:15:04.465Z,100549.19
2022-11-28T08:17:32.339Z,100550.28
2022-11-28T08:20:00.230Z,100545.06
2022-11-28T08:22:29.574Z,100544.44
2022-11-28T08:24:57.468Z,100558.06
2022-11-28T08:27:25.617Z,100555.31
2022-11-28T08:29:54.275Z,100550.56
2022-11-28T08:32:22.342Z,100545.50
2022-11-28T08:34:50.194Z,100551.78
2022-11-28T08:37:18.386Z,100553.22
2022-11-28T08:39:47.638Z,100559.72
2022-11-28T08:42:15.494Z,100548.84
2022-11-28T08:44:43.375Z,100540.91
2022-11-28T08:47:11.571Z,100543.41
2022-11-28T08:49:39.914Z,100547.16
2022-11-28T08:52:08.049Z,100553.22
2022-11-28T08:54:35.956Z,100558.66
2022-11-28T08:57:05.591Z,100566.81
2022-11-28T08:59:33.488Z,100566.00
2022-11-28T09:02:01.344Z,100569.75
2022-11-28T09:04:29.872Z,100567.03
2022-11-28T09:06:58.073Z,100563.50
2022-11-28T09:09:30.177Z,100555.81
2022-11-28T09:12:00.468Z,100564.94
2022-11-28T09:14:29.727Z,100556.78
2022-11-28T09:16:58.017Z,100560.34
2022-11-28T09:19:26.019Z,100570.97
2022-11-28T09:21:57.703Z,100568.50
2022-11-28T09:24:25.999Z,100569.53
2022-11-28T09:26:54.169Z,100580.22
2022-11-28T09:29:22.082Z,100582.94
2022-11-28T09:31:51.362Z,100584.81
2022-11-28T09:34:19.275Z,100585.66
2022-11-28T09:36:47.223Z,100593.81
2022-11-28T09:39:15.110Z,100591.31
2022-11-28T09:41:53.576Z,100569.47
2022-11-28T09:44:23.290Z,100590.25
2022-11-28T09:46:54.217Z,100589.41
2022-11-28T09:49:35.324Z,100589.41
2022-11-28T09:52:10.632Z,100581.94
2022-11-28T09:54:42.795Z,100564.03
2022-11-28T09:57:14.011Z,100597.59
2022-11-28T09:59:42.285Z,100585.03
2022-11-28T10:02:20.013Z,100584.41
2022-11-28T10:04:50.270Z,100586.91
2022-11-28T10:07:20.779Z,100595.06
2022-11-28T10:09:57.409Z,100586.91
2022-11-28T10:12:33.373Z,100583.38
2022-11-28T10:15:18.916Z,100588.81
2022-11-28T10:17:51.154Z,100586.69
2022-11-28T10:20:20.616Z,100583.16
2022-11-28T10:22:51.553Z,100581.25
2022-11-28T10:25:20.274Z,100584.81
2022-11-28T10:27:48.572Z,100581.00
2022-11-28T10:30:20.220Z,100588.59
2022-11-28T10:32:52.611Z,100579.59
2022-11-28T10:35:28.402Z,100578.97
2022-11-28T10:37:56.709Z,100572.25
2022-11-28T10:40:28.853Z,100578.53
2022-11-28T10:42:59.330Z,100568.72
2022-11-28T10:45:30.168Z,100577.72
2022-11-28T10:48:37.880Z,100573.09
2022-11-28T10:51:02.459Z,100577.50
2022-11-28T10:53:38.831Z,100576.88
2022-11-28T10:56:13.950Z,100506.88
2022-11-28T10:58:45.051Z,100569.63
2022-11-28T11:01:12.995Z,100580.44
2022-11-28T11:03:42.704Z,100577.72
2022-11-28T11:06:11.329Z,100576.88
2022-11-28T11:08:39.865Z,100581.25
2022-11-28T11:11:14.913Z,100580.44
2022-11-28T11:13:57.664Z,100576.03
2022-11-28T11:16:25.652Z,100569.53
2022-11-28T11:18:55.942Z,100567.03
2022-11-28T11:21:24.701Z,100568.09
2022-11-28T11:24:13.487Z,100575.19
2022-11-28T11:26:42.273Z,100574.38
2022-11-28T11:29:23.490Z,100567.03
2022-11-28T11:31:52.020Z,100537.97
2022-11-28T11:34:22.592Z,100562.44
2022-11-28T11:36:50.938Z,100557.53
2022-11-28T11:39:23.063Z,100570.38
2022-11-28T11:41:51.589Z,100569.53
2022-11-28T11:44:34.792Z,100559.09
2022-11-28T11:47:05.182Z,100573.94
2022-11-28T11:49:35.630Z,100573.09
2022-11-28T11:52:04.876Z,100574.16
2022-11-28T11:54:32.778Z,100547.19
2022-11-28T11:57:30.821Z,100583.16
2022-11-28T11:59:50.219Z,100576.03
2022-11-28T12:02:22.733Z,100543.41
2022-11-28T12:04:55.643Z,100580.44
2022-11-28T12:07:26.171Z,100583.16
2022-11-28T12:09:54.800Z,100582.53
2022-11-28T12:12:23.615Z,100581.69
2022-11-28T12:14:51.512Z,100544.09
2022-11-28T12:17:47.747Z,100531.03
2022-11-28T12:20:32.213Z,100574.97
2022-11-28T12:23:04.887Z,100570.91
2022-11-28T12:25:35.263Z,100575.28
2022-11-28T12:28:07.092Z,100581.69
2022-11-28T12:30:44.736Z,100578.97
2022-11-28T12:33:20.347Z,100573.53
2022-11-28T12:36:05.107Z,100586.09
2022-11-28T12:38:39.812Z,100580.66
2022-11-28T12:41:15.373Z,100586.09
2022-11-28T12:43:52.777Z,100575.19
2022-11-28T12:46:24.398Z,100580.28
2022-11-28T12:48:59.801Z,100575.06
2022-11-28T12:51:35.456Z,100561.94
2022-11-28T12:54:11.619Z,100580.44
2022-11-28T12:56:45.425Z,100584.56
2022-11-28T12:59:19.086Z,100581.84
2022-11-28T13:01:54.919Z,100584.56
2022-11-28T13:04:35.302Z,100583.72
2022-11-28T13:07:08.151Z,100582.94
2022-11-28T13:09:37.224Z,100569.63
2022-11-28T13:12:13.761Z,100544.91
2022-11-28T13:14:47.091Z,100578.53
2022-11-28T13:17:21.648Z,100568.09
2022-11-28T13:19:51.984Z,100563.56
2022-11-28T13:22:23.635Z,100557.31
2022-11-28T13:24:55.669Z,100582.09
2022-11-28T13:27:32.406Z,100578.53
2022-11-28T13:30:04.223Z,100582.94
2022-11-28T13:32:35.318Z,100580.22
2022-11-28T13:35:03.737Z,100581.84
2022-11-28T13:40:27.700Z,100588.72
2022-11-28T13:43:06.396Z,100592.28
2022-11-28T13:45:36.720Z,100571.66
2022-11-28T13:51:30.957Z,100586.38
2022-11-28T13:54:43.856Z,100586.16
2022-11-28T13:57:19.296Z,100551.03
2022-11-28T13:59:49.761Z,100587.81
2022-11-28T14:02:21.136Z,100586.16
2022-11-28T14:04:49.575Z,100582.38
2022-11-28T14:07:23.217Z,100576.09
2022-11-28T14:09:54.885Z,100576.09
2022-11-28T14:12:24.777Z,100581.31
2022-11-28T14:15:15.969Z,100534.19
2022-11-28T14:17:51.866Z,100541.38
2022-11-28T14:20:24.240Z,100562.59
2022-11-28T14:23:00.285Z,100579.81
2022-11-28T14:25:28.984Z,100579.81
2022-11-28T14:27:59.729Z,100580.38
2022-11-28T14:30:31.815Z,100586.69
2022-11-28T14:33:00.914Z,100581.25
2022-11-28T14:36:14.930Z,100586.47
2022-11-28T14:38:46.487Z,100600.91
2022-11-28T14:41:15.299Z,100600.91
2022-11-28T14:43:46.656Z,100603.63
2022-11-28T14:46:32.984Z,100612.38
2022-11-28T14:49:21.866Z,100614.88
2022-11-28T14:52:41.970Z,100609.44
2022-11-28T14:55:18.047Z,100621.16
2022-11-28T14:57:57.141Z,100596.44
2022-11-28T15:00:27.754Z,100621.78
2022-11-28T15:03:16.456Z,100623.41
2022-11-28T15:05:46.102Z,100615.72
2022-11-28T15:08:38.368Z,100631.56
2022-11-28T15:11:13.535Z,100628.84
2022-11-28T15:13:53.920Z,100625.34
2022-11-28T15:16:24.219Z,100625.34
2022-11-28T15:18:54.208Z,100626.59
2022-11-28T15:21:23.558Z,100619.28
2022-11-28T15:23:52.857Z,100624.16
2022-11-28T15:26:22.609Z,100631.72
2022-11-28T15:28:50.846Z,100636.47
2022-11-28T15:31:23.614Z,100617.34
2022-11-28T15:33:52.762Z,100632.31
2022-11-28T15:36:26.969Z,100639.03
2022-11-28T15:38:54.938Z,100618.66
2022-11-28T15:41:24.481Z,100635.75
2022-11-28T15:43:52.442Z,100641.41
2022-11-28T15:46:21.580Z,100645.19
2022-11-28T15:48:51.249Z,100643.72
2022-11-28T15:51:26.413Z,100641.69
2022-11-28T15:53:54.294Z,100647.16
2022-11-28T15:56:22.459Z,100647.63
2022-11-28T15:58:51.690Z,100644.28
2022-11-28T16:01:20.682Z,100616.22
2022-11-28T16:03:55.344Z,100643.69
2022-11-28T16:06:23.564Z,100649.13
2022-11-28T16:08:53.296Z,100648.31
2022-11-28T16:11:22.339Z,100652.91
2022-11-28T16:13:50.246Z,100646.84
2022-11-28T16:16:19.721Z,100657.06
2022-11-28T16:18:49.919Z,100661.09
2022-11-28T16:21:19.151Z,100662.13
2022-11-28T16:23:47.063Z,100666.16
2022-11-28T16:26:36.001Z,100665.31
2022-11-28T16:29:13.534Z,100671.00
2022-11-28T16:31:41.928Z,100670.16
2022-11-28T16:34:13.101Z,100664.94
2022-11-28T16:36:42.910Z,100661.38
2022-11-28T16:39:15.739Z,100642.69
2022-11-28T16:41:47.166Z,100632.84
2022-11-28T16:44:15.587Z,100663.88
2022-11-28T16:46:50.963Z,100656.41
2022-11-28T16:49:35.598Z,100662.47
2022-11-28T16:52:45.708Z,100667.06
2022-11-28T16:55:38.784Z,100671.66
2022-11-28T16:58:17.782Z,100677.13
2022-11-28T17:00:47.797Z,100673.78
2022-11-28T17:03:49.918Z,100676.28
2022-11-28T17:06:20.960Z,100671.06
2022-11-28T17:08:50.571Z,100678.16
2022-11-28T17:11:20.016Z,100677.34
2022-11-28T17:13:48.248Z,100676.72
2022-11-28T17:16:20.113Z,100678.59
2022-11-28T17:18:48.031Z,100689.06
2022-11-28T17:21:16.500Z,100637.94
2022-11-28T17:23:44.432Z,100676.00
2022-11-28T17:26:13.724Z,100700.13
2022-11-28T17:28:41.588Z,100696.19
2022-11-28T17:31:11.119Z,100703.91
2022-11-28T17:33:44.296Z,100707.44
2022-11-28T17:36:13.278Z,100712.88
2022-11-28T17:38:41.120Z,100712.88
2022-11-28T17:41:14.290Z,100715.44
2022-11-28T17:43:42.562Z,100711.09
2022-11-28T17:46:11.270Z,100707.28
2022-11-28T17:48:39.205Z,100713.13
2022-11-28T17:51:07.667Z,100695.41
2022-11-28T17:53:36.268Z,100704.97
2022-11-28T17:56:04.218Z,100664.03
2022-11-28T17:58:33.458Z,100715.59
2022-11-28T18:01:01.507Z,100717.75
2022-11-28T18:03:29.541Z,100727.56
2022-11-28T18:05:57.710Z,100726.50
2022-11-28T18:08:25.598Z,100715.84
2022-11-28T18:11:03.515Z,100714.81
2022-11-28T18:13:31.411Z,100719.63
2022-11-28T18:16:01.033Z,100720.47
2022-11-28T18:18:29.016Z,100679.31
2022-11-28T18:20:56.897Z,100700.13
2022-11-28T18:23:24.776Z,100706.63
2022-11-28T18:25:52.709Z,100730.72
2022-11-28T18:28:22.021Z,100723.03
2022-11-28T18:30:50.646Z,100655.88
2022-11-28T18:33:20.007Z,100733.66
2022-11-28T18:35:48.227Z,100724.69
2022-11-28T18:38:16.127Z,100725.50
2022-11-28T18:40:44.014Z,100703.69
2022-11-28T18:43:11.894Z,100723.88
2022-11-28T18:45:39.841Z,100718.84
2022-11-28T18:48:07.914Z,100731.19
2022-11-28T18:50:37.322Z,100723.88
2022-11-28T18:53:05.190Z,100681.50
2022-11-28T18:55:40.395Z,100730.34
2022-11-28T18:58:08.319Z,100713.41
2022-11-28T19:00:36.286Z,100744.78
2022-11-28T19:03:04.193Z,100742.06
2022-11-28T19:05:37.834Z,100738.53
2022-11-28T19:08:08.517Z,100753.78
2022-11-28T19:10:38.668Z,100745.84
2022-11-28T19:13:43.790Z,100747.13
2022-11-28T19:16:12.692Z,100746.06
2022-11-28T19:18:40.744Z,100699.91
2022-11-28T19:21:08.911Z,100744.84
2022-11-28T19:23:38.168Z,100748.41
2022-11-28T19:26:07.221Z,100751.50
2022-11-28T19:28:36.805Z,100740.25
2022-11-28T19:31:09.516Z,100742.97
2022-11-28T19:33:37.475Z,100751.50
2022-11-28T19:36:06.023Z,100753.41
2022-11-28T19:38:34.469Z,100761.56
2022-11-28T19:41:07.968Z,100759.66
2022-11-28T19:43:35.914Z,100763.00
2022-11-28T19:46:05.181Z,100765.09
2022-11-28T19:48:33.611Z,100762.38
2022-11-28T19:51:01.648Z,100762.00
2022-11-28T19:53:29.695Z,100766.16
2022-11-28T19:55:58.782Z,100761.81
2022-11-28T19:58:29.155Z,100771.59
2022-11-28T20:00:57.168Z,100770.19
2022-11-28T20:03:25.138Z,100766.41
2022-11-28T20:05:53.288Z,100777.28
2022-11-28T20:08:22.235Z,100769.97
2022-11-28T20:10:50.100Z,100775.41
2022-11-28T20:13:17.944Z,100778.13
2022-11-28T20:15:47.464Z,100749.03
2022-11-28T20:18:15.356Z,100796.34
2022-11-28T20:20:43.312Z,100789.00
2022-11-28T20:23:11.279Z,100796.09
2022-11-28T20:25:39.494Z,100796.94
2022-11-28T20:28:07.384Z,100789.84
2022-11-28T20:30:37.057Z,100789.84
2022-11-28T20:33:06.323Z,100800.72
2022-11-28T20:35:34.514Z,100790.47
2022-11-28T20:38:02.490Z,100795.28
2022-11-28T20:40:30.385Z,100800.72
2022-11-28T20:42:58.215Z,100799.88
2022-11-28T20:45:26.448Z,100805.34
2022-11-28T20:47:54.409Z,100804.25
2022-11-28T20:50:23.625Z,100803.44
2022-11-28T20:52:51.472Z,100792.63
2022-11-28T20:55:19.673Z,100793.44
2022-11-28T20:57:47.552Z,100804.50
2022-11-28T21:00:16.265Z,100809.09
2022-11-28T21:02:44.653Z,100787.00
2022-11-28T21:05:12.799Z,100809.94
2022-11-28T21:07:42.088Z,100806.38
2022-11-28T21:10:10.441Z,100781.25
2022-11-28T21:12:38.318Z,100812.66
2022-11-28T21:15:10.069Z,100813.72
2022-11-28T21:17:37.928Z,100816.44
2022-11-28T21:20:07.305Z,100814.53
2022-11-28T21:22:35.157Z,100819.16
2022-11-28T21:25:06.367Z,100776.84
2022-11-28T21:27:35.180Z,100798.72
2022-11-28T21:30:03.869Z,100807.44
2022-11-28T21:32:31.784Z,100805.53
2022-11-28T21:35:04.114Z,100807.44
2022-11-28T21:37:32.631Z,100812.88
2022-11-28T21:40:00.571Z,100822.91
2022-11-28T21:42:30.065Z,100826.47
2022-11-28T21:44:58.212Z,100823.75
2022-11-28T21:47:26.944Z,100818.53
2022-11-28T21:49:55.154Z,100823.75
2022-11-28T21:52:24.114Z,100828.34
2022-11-28T21:54:52.744Z,100819.16
2022-11-28T21:57:20.919Z,100807.47
2022-11-28T21:59:50.281Z,100821.88
2022-11-28T22:02:18.472Z,100825.44
2022-11-28T22:04:46.746Z,100817.47
2022-11-28T22:07:15.306Z,100829.19
2022-11-28T22:09:43.438Z,100827.31
2022-11-28T22:12:11.278Z,100827.31
2022-11-28T22:14:39.166Z,100829.19
2022-11-28T22:17:08.700Z,100830.88
2022-11-28T22:19:36.580Z,100827.31
2022-11-28T22:22:04.441Z,100828.34
2022-11-28T22:24:33.086Z,100828.34
2022-11-28T22:27:01.287Z,100830.88
2022-11-28T22:29:29.152Z,100835.69
2022-11-28T22:31:57.074Z,100839.03
2022-11-28T22:34:26.355Z,100836.13
2022-11-28T22:36:54.501Z,100841.75
2022-11-28T22:39:22.436Z,100849.06
2022-11-28T22:41:50.341Z,100840.91
2022-11-28T22:44:18.371Z,100840.91
2022-11-28T22:46:46.537Z,100852.84
2022-11-28T22:49:14.499Z,100846.56
2022-11-28T22:51:43.740Z,100840.06
2022-11-28T22:54:12.485Z,100847.41
2022-11-28T22:56:41.109Z,100852.63
2022-11-28T22:59:12.590Z,100848.03
2022-11-28T23:01:40.555Z,100845.31
2022-11-28T23:04:08.457Z,100845.13
2022-11-28T23:06:36.746Z,100859.75
2022-11-28T23:09:06.967Z,100849.91
2022-11-28T23:11:36.768Z,100854.97
2022-11-28T23:14:04.671Z,100858.91
2022-11-28T23:16:33.856Z,100860.59
2022-11-28T23:19:02.572Z,100860.59
2022-11-28T23:21:31.060Z,100867.66
2022-11-28T23:23:58.961Z,100869.34
2022-11-28T23:26:29.324Z,100852.84
2022-11-28T23:29:00.383Z,100863.72
2022-11-28T23:31:29.287Z,100860.78
2022-11-28T23:33:57.259Z,100864.34
2022-11-28T23:36:26.461Z,100860.78
2022-11-28T23:38:55.443Z,100861.47
2022-11-28T23:41:23.373Z,100859.34
2022-11-28T23:43:52.744Z,100866.25
2022-11-28T23:46:21.667Z,100862.47
2022-11-28T23:48:50.060Z,100864.09
2022-11-28T23:51:19.358Z,100868.50
2022-11-28T23:53:47.243Z,100852.69
2022-11-28T23:56:16.042Z,100867.66
2022-11-28T23:58:43.948Z,100867.66
